CheckWX is a tool to help pilots better visualize weather data.  It is not intended as a substitute for an official pre-flight weather briefing.

10:53:16 UTC

SCCH METAR
Gral. Bernardo O´Higgins Airport
Chillan, Chile
Current

53 mins ago

SCCH 181000Z AUTO VRB02KT 9999 ///////// 08/06 Q1011
Observed
Apr-18 @ 10:00 UTC
Wind
  • Variable at 2 KTS
Visibility
10,000+ meters
Temperature
C / 46°F
Dewpoint
C / 43°F
Humidity
87%
Altimeter
29.85" Hg
Pressure
1010.92 hPa
Previous

2 hours ago

SCCH 180900Z AUTO 11002KT 9999 ///////// 08/06 Q1011
Observed
Apr-18 @ 09:00 UTC
Wind
  • 110° at 2 KTS
Visibility
10,000+ meters
Temperature
C / 46°F
Dewpoint
C / 43°F
Humidity
87%
Altimeter
29.85" Hg
Pressure
1010.92 hPa
Previous

3 hours ago

SCCH 180800Z AUTO VRB02KT 9999 ///////// 08/06 Q1011
Observed
Apr-18 @ 08:00 UTC
Wind
  • Variable at 2 KTS
Visibility
10,000+ meters
Temperature
C / 46°F
Dewpoint
C / 43°F
Humidity
87%
Altimeter
29.85" Hg
Pressure
1010.92 hPa